createdAt,value
2022-12-04T00:00:36.990Z,0.60
2022-12-04T00:03:05.199Z,0.60
2022-12-04T00:05:33.446Z,0.60
2022-12-04T00:08:01.623Z,0.60
2022-12-04T00:10:29.755Z,0.60
2022-12-04T00:12:58.740Z,0.60
2022-12-04T00:15:28.230Z,0.60
2022-12-04T00:17:56.557Z,0.60
2022-12-04T00:20:24.726Z,0.60
2022-12-04T00:22:53.115Z,0.60
2022-12-04T00:25:21.126Z,0.60
2022-12-04T00:27:49.208Z,0.60
2022-12-04T00:30:17.378Z,0.70
2022-12-04T00:32:46.924Z,0.60
2022-12-04T00:35:15.004Z,0.60
2022-12-04T00:37:43.023Z,0.60
2022-12-04T00:40:11.842Z,0.60
2022-12-04T00:42:39.899Z,0.60
2022-12-04T00:45:08.764Z,0.70
2022-12-04T00:47:37.020Z,0.70
2022-12-04T00:50:07.871Z,0.60
2022-12-04T00:52:36.028Z,0.60
2022-12-04T00:55:04.213Z,0.60
2022-12-04T00:57:32.249Z,0.60
2022-12-04T01:00:00.351Z,0.60
2022-12-04T01:02:28.384Z,0.60
2022-12-04T01:04:56.581Z,0.60
2022-12-04T01:07:26.174Z,0.70
2022-12-04T01:09:54.601Z,0.60
2022-12-04T01:12:22.801Z,0.60
2022-12-04T01:14:51.015Z,0.60
2022-12-04T01:17:19.120Z,0.60
2022-12-04T01:19:47.173Z,0.60
2022-12-04T01:22:15.457Z,0.60
2022-12-04T01:24:44.974Z,0.60
2022-12-04T01:27:13.023Z,0.70
2022-12-04T01:29:41.344Z,0.60
2022-12-04T01:32:09.419Z,0.60
2022-12-04T01:34:37.901Z,0.60
2022-12-04T01:37:05.969Z,0.60
2022-12-04T01:39:36.568Z,0.60
2022-12-04T01:42:06.621Z,0.60
2022-12-04T01:44:34.708Z,0.60
2022-12-04T01:47:03.287Z,0.70
2022-12-04T01:49:35.364Z,0.60
2022-12-04T01:52:08.152Z,0.60
2022-12-04T01:54:39.932Z,0.60
2022-12-04T01:57:13.822Z,0.60
2022-12-04T01:59:48.996Z,0.60
2022-12-04T02:02:22.270Z,0.70
2022-12-04T02:04:50.679Z,0.70
2022-12-04T02:07:18.863Z,0.60
2022-12-04T02:09:53.916Z,0.60
2022-12-04T02:20:20.066Z,0.60
2022-12-04T02:23:24.661Z,0.60
2022-12-04T02:26:00.703Z,0.60
2022-12-04T02:28:37.882Z,0.60
2022-12-04T02:31:12.834Z,0.70
2022-12-04T02:33:46.293Z,0.60
2022-12-04T02:36:20.695Z,0.70
2022-12-04T02:38:53.562Z,0.70
2022-12-04T02:41:24.900Z,0.70
2022-12-04T02:43:58.616Z,0.70
2022-12-04T02:46:30.863Z,0.70
2022-12-04T02:49:02.349Z,0.70
2022-12-04T02:51:36.171Z,0.70
2022-12-04T02:54:10.754Z,0.70
2022-12-04T02:56:43.750Z,0.70
2022-12-04T02:59:17.519Z,0.70
2022-12-04T03:07:11.074Z,0.70
2022-12-04T03:09:44.770Z,0.60
2022-12-04T03:12:17.713Z,0.70
2022-12-04T03:14:52.279Z,0.70
2022-12-04T03:17:26.939Z,0.70
2022-12-04T03:20:01.055Z,0.70
2022-12-04T03:22:31.068Z,0.70
2022-12-04T03:24:59.417Z,0.70
2022-12-04T03:27:34.831Z,0.70
2022-12-04T03:30:07.325Z,0.70
2022-12-04T03:32:40.379Z,0.70
2022-12-04T03:35:16.879Z,0.70
2022-12-04T03:37:54.505Z,0.70
2022-12-04T03:40:26.925Z,0.70
2022-12-04T03:43:01.014Z,0.70
2022-12-04T03:45:37.734Z,0.70
2022-12-04T03:48:09.179Z,0.70
2022-12-04T03:50:41.621Z,0.70
2022-12-04T03:53:17.952Z,0.70
2022-12-04T03:55:50.442Z,0.70
2022-12-04T03:58:22.667Z,0.70
2022-12-04T04:00:54.170Z,0.70
2022-12-04T04:03:26.091Z,0.70
2022-12-04T04:05:59.399Z,0.70
2022-12-04T04:08:34.058Z,0.70
2022-12-04T04:11:11.140Z,0.70
2022-12-04T04:14:01.787Z,0.70
2022-12-04T04:16:52.691Z,0.70
2022-12-04T04:19:39.590Z,0.70
2022-12-04T04:22:28.582Z,0.70
2022-12-04T04:25:03.377Z,0.70
2022-12-04T04:27:31.657Z,0.70
2022-12-04T04:30:00.185Z,0.70
2022-12-04T04:32:37.211Z,0.70
2022-12-04T04:35:12.096Z,0.70
2022-12-04T04:37:47.667Z,0.70
2022-12-04T04:40:23.034Z,0.70
2022-12-04T04:42:59.330Z,0.70
2022-12-04T04:45:32.670Z,0.70
2022-12-04T04:48:04.862Z,0.70
2022-12-04T04:50:34.108Z,0.70
2022-12-04T04:53:06.490Z,0.70
2022-12-04T04:55:36.146Z,0.70
2022-12-04T04:58:09.396Z,0.70
2022-12-04T05:00:38.547Z,0.70
2022-12-04T05:03:08.361Z,0.70
2022-12-04T05:05:36.445Z,0.70
2022-12-04T05:08:04.609Z,0.60
2022-12-04T05:10:32.677Z,0.70
2022-12-04T05:13:00.734Z,0.70
2022-12-04T05:15:28.750Z,0.70
2022-12-04T05:17:56.811Z,0.70
2022-12-04T05:20:26.242Z,0.80
2022-12-04T05:22:54.679Z,0.70
2022-12-04T05:25:22.741Z,0.70
2022-12-04T05:27:50.796Z,0.70
2022-12-04T05:30:19.137Z,0.70
2022-12-04T05:32:47.171Z,0.70
2022-12-04T05:35:15.321Z,0.70
2022-12-04T05:37:45.608Z,0.70
2022-12-04T05:40:14.042Z,0.70
2022-12-04T05:42:42.105Z,0.70
2022-12-04T05:45:10.559Z,0.70
2022-12-04T05:47:42.276Z,0.70
2022-12-04T05:53:53.831Z,0.70
2022-12-04T06:07:44.166Z,0.70
2022-12-04T06:10:13.682Z,0.70
2022-12-04T06:12:41.783Z,0.70
2022-12-04T06:27:11.059Z,0.70
2022-12-04T06:29:32.486Z,0.70
2022-12-04T06:32:00.814Z,0.70
2022-12-04T06:34:29.740Z,0.70
2022-12-04T06:36:58.112Z,0.70
2022-12-04T06:39:26.182Z,0.80
2022-12-04T06:41:55.673Z,0.80
2022-12-04T06:44:23.737Z,0.80
2022-12-04T06:46:54.701Z,0.70
2022-12-04T06:49:23.029Z,0.80
2022-12-04T06:51:51.119Z,0.70
2022-12-04T06:54:19.164Z,0.80
2022-12-04T06:56:47.214Z,0.80
2022-12-04T06:59:16.991Z,0.80
2022-12-04T07:01:45.080Z,0.70
2022-12-04T07:04:13.170Z,0.70
2022-12-04T07:06:41.373Z,0.80
2022-12-04T07:09:11.248Z,0.80
2022-12-04T07:11:40.101Z,0.70
2022-12-04T07:14:08.513Z,0.80
2022-12-04T07:16:41.035Z,0.80
2022-12-04T07:19:09.702Z,0.80
2022-12-04T07:21:37.766Z,0.80
2022-12-04T07:24:05.996Z,0.80
2022-12-04T07:26:34.085Z,0.80
2022-12-04T07:29:02.174Z,0.80
2022-12-04T07:31:31.194Z,0.80
2022-12-04T07:34:00.880Z,0.80
2022-12-04T07:36:29.070Z,0.80
2022-12-04T07:38:57.763Z,0.80
2022-12-04T07:41:25.845Z,0.80
2022-12-04T07:43:54.776Z,0.90
2022-12-04T07:46:25.017Z,0.80
2022-12-04T07:48:53.499Z,0.80
2022-12-04T07:51:25.044Z,0.90
2022-12-04T07:53:54.194Z,0.80
2022-12-04T07:56:22.529Z,0.90
2022-12-04T07:58:50.601Z,0.90
2022-12-04T08:01:20.894Z,0.90
2022-12-04T08:03:51.062Z,0.90
2022-12-04T08:06:20.741Z,0.90
2022-12-04T08:08:50.686Z,0.90
2022-12-04T08:11:23.291Z,0.90
2022-12-04T08:13:55.734Z,1.00
2022-12-04T08:16:24.227Z,1.00
2022-12-04T08:18:52.536Z,0.90
2022-12-04T08:21:22.885Z,0.90
2022-12-04T08:23:54.545Z,1.00
2022-12-04T08:26:24.067Z,1.00
2022-12-04T08:28:54.780Z,1.00
2022-12-04T08:31:24.902Z,1.10
2022-12-04T08:33:54.863Z,1.10
2022-12-04T08:36:24.055Z,1.20
2022-12-04T08:38:53.810Z,1.20
2022-12-04T08:41:24.530Z,1.20
2022-12-04T08:43:54.677Z,1.20
2022-12-04T08:46:23.919Z,1.20
2022-12-04T08:48:52.160Z,1.20
2022-12-04T08:51:22.460Z,1.20
2022-12-04T08:53:56.725Z,1.20
2022-12-04T08:56:25.495Z,1.30
2022-12-04T08:58:56.193Z,1.20
2022-12-04T09:01:25.550Z,1.20
2022-12-04T09:03:53.987Z,1.20
2022-12-04T09:06:22.964Z,1.20
2022-12-04T09:08:55.598Z,1.10
2022-12-04T09:11:26.120Z,1.20
2022-12-04T09:13:54.836Z,1.10
2022-12-04T09:16:24.681Z,1.10
2022-12-04T09:18:53.010Z,1.10
2022-12-04T09:21:22.904Z,1.10
2022-12-04T09:23:51.137Z,1.10
2022-12-04T09:26:23.343Z,1.20
2022-12-04T09:28:52.478Z,1.20
2022-12-04T09:31:21.519Z,1.20
2022-12-04T09:33:50.308Z,1.10
2022-12-04T09:36:18.690Z,1.20
2022-12-04T09:38:47.917Z,1.20
2022-12-04T09:41:33.891Z,1.20
2022-12-04T09:44:05.405Z,1.20
2022-12-04T09:46:36.030Z,1.20
2022-12-04T09:49:12.305Z,1.30
2022-12-04T09:51:43.006Z,1.20
2022-12-04T09:54:17.065Z,1.20
2022-12-04T09:56:55.318Z,1.10
2022-12-04T09:59:26.771Z,1.20
2022-12-04T10:02:01.909Z,1.20
2022-12-04T10:04:29.938Z,1.30
2022-12-04T10:07:03.539Z,1.40
2022-12-04T10:09:40.065Z,1.40
2022-12-04T10:12:23.215Z,1.30
2022-12-04T10:15:01.884Z,1.20
2022-12-04T10:17:48.677Z,1.20
2022-12-04T10:20:28.594Z,1.20
2022-12-04T10:23:10.515Z,1.30
2022-12-04T10:25:42.184Z,1.20
2022-12-04T10:28:20.140Z,1.20
2022-12-04T10:30:50.046Z,1.20
2022-12-04T10:33:24.834Z,1.20
2022-12-04T10:35:55.008Z,1.30
2022-12-04T10:38:31.540Z,1.40
2022-12-04T10:41:06.632Z,1.50
2022-12-04T10:43:44.342Z,1.50
2022-12-04T10:46:16.288Z,1.40
2022-12-04T10:48:47.572Z,1.40
2022-12-04T10:51:17.258Z,1.50
2022-12-04T10:53:46.312Z,1.40
2022-12-04T10:56:18.033Z,1.40
2022-12-04T10:58:57.010Z,1.40
2022-12-04T11:01:25.375Z,1.40
2022-12-04T11:04:01.231Z,1.50
2022-12-04T11:06:30.074Z,1.60
2022-12-04T11:08:59.526Z,1.50
2022-12-04T11:11:30.929Z,1.50
2022-12-04T11:14:05.292Z,1.60
2022-12-04T11:16:39.873Z,1.60
2022-12-04T11:19:22.300Z,1.70
2022-12-04T11:21:51.451Z,1.50
2022-12-04T11:24:23.983Z,1.50
2022-12-04T11:26:53.279Z,1.50
2022-12-04T11:29:32.878Z,1.50
2022-12-04T11:32:07.545Z,1.60
2022-12-04T11:34:39.955Z,1.60
2022-12-04T11:37:18.933Z,1.60
2022-12-04T11:39:47.309Z,1.70
2022-12-04T11:42:19.648Z,1.80
2022-12-04T11:44:55.516Z,1.70
2022-12-04T11:47:26.275Z,1.70
2022-12-04T11:50:03.588Z,1.70
2022-12-04T11:52:46.492Z,1.70
2022-12-04T11:55:23.926Z,1.70
2022-12-04T11:58:09.513Z,1.70
2022-12-04T12:00:44.645Z,1.60
2022-12-04T12:03:17.502Z,1.70
2022-12-04T12:06:05.703Z,1.80
2022-12-04T12:08:45.501Z,1.70
2022-12-04T12:11:21.743Z,1.70
2022-12-04T12:13:59.229Z,1.70
2022-12-04T12:16:37.969Z,1.80
2022-12-04T12:19:23.803Z,1.80
2022-12-04T12:22:03.583Z,1.80
2022-12-04T12:24:49.901Z,1.80
2022-12-04T12:27:35.526Z,1.80
2022-12-04T12:30:07.840Z,1.80
2022-12-04T12:32:59.465Z,1.80
2022-12-04T12:35:31.805Z,1.80
2022-12-04T12:38:03.777Z,1.80
2022-12-04T12:40:36.276Z,1.80
2022-12-04T12:43:11.152Z,1.80
2022-12-04T12:45:46.653Z,1.90
2022-12-04T12:48:27.720Z,1.90
2022-12-04T12:51:28.671Z,2.10
2022-12-04T12:53:53.586Z,2.10
2022-12-04T12:56:31.068Z,2.20
2022-12-04T12:59:04.311Z,2.20
2022-12-04T13:01:42.812Z,2.00
2022-12-04T13:04:19.278Z,1.90
2022-12-04T13:06:52.296Z,2.00
2022-12-04T13:09:26.176Z,2.00
2022-12-04T13:12:00.283Z,1.90
2022-12-04T13:14:28.389Z,1.90
2022-12-04T13:17:00.067Z,1.90
2022-12-04T13:19:33.762Z,1.90
2022-12-04T13:22:14.937Z,2.00
2022-12-04T13:25:05.215Z,1.90
2022-12-04T13:27:46.513Z,1.90
2022-12-04T13:30:19.910Z,2.00
2022-12-04T13:33:36.049Z,1.90
2022-12-04T13:36:37.582Z,1.90
2022-12-04T13:39:31.962Z,1.90
2022-12-04T13:42:03.022Z,2.00
2022-12-04T13:44:33.625Z,2.00
2022-12-04T13:47:04.447Z,2.00
2022-12-04T13:49:34.323Z,2.00
2022-12-04T13:52:05.969Z,2.00
2022-12-04T13:54:36.076Z,2.00
2022-12-04T13:57:22.498Z,2.00
2022-12-04T13:59:51.551Z,2.00
2022-12-04T14:02:27.779Z,2.00
2022-12-04T14:04:59.979Z,2.00
2022-12-04T14:07:32.087Z,2.00
2022-12-04T14:10:04.666Z,2.00
2022-12-04T14:12:36.388Z,2.00
2022-12-04T14:15:07.164Z,2.00
2022-12-04T14:17:37.818Z,2.10
2022-12-04T14:20:08.956Z,2.10
2022-12-04T14:22:45.453Z,2.00
2022-12-04T14:25:35.691Z,2.00
2022-12-04T14:28:16.134Z,2.00
2022-12-04T14:30:46.194Z,2.00
2022-12-04T14:33:21.518Z,2.10
2022-12-04T14:35:53.032Z,2.10
2022-12-04T14:38:24.336Z,2.20
2022-12-04T14:40:56.230Z,2.10
2022-12-04T14:43:26.717Z,2.10
2022-12-04T14:45:59.942Z,2.10
2022-12-04T14:48:38.222Z,2.00
2022-12-04T14:51:13.522Z,2.10
2022-12-04T14:53:49.548Z,2.10
2022-12-04T14:56:41.686Z,2.20
2022-12-04T14:59:18.369Z,2.20
2022-12-04T15:01:48.348Z,2.10
2022-12-04T15:04:24.271Z,2.10
2022-12-04T15:06:58.331Z,2.20
2022-12-04T15:09:47.712Z,2.20
2022-12-04T15:12:36.405Z,2.10
2022-12-04T15:15:13.859Z,2.20
2022-12-04T15:17:42.388Z,2.10
2022-12-04T15:20:12.993Z,2.10
2022-12-04T15:22:41.146Z,2.10
2022-12-04T15:25:19.165Z,2.00
2022-12-04T15:27:49.117Z,2.00
2022-12-04T15:30:19.557Z,2.10
2022-12-04T15:32:49.913Z,2.20
2022-12-04T15:35:23.868Z,2.30
2022-12-04T15:37:52.279Z,2.20
2022-12-04T15:40:25.132Z,2.10
2022-12-04T15:55:18.468Z,2.10
2022-12-04T15:57:53.923Z,2.10
2022-12-04T16:00:27.298Z,2.10
2022-12-04T16:02:56.212Z,2.00
2022-12-04T16:05:36.550Z,2.10
2022-12-04T16:08:24.177Z,2.00
2022-12-04T16:11:01.066Z,2.10
2022-12-04T16:13:33.578Z,1.90
2022-12-04T16:16:02.559Z,2.10
2022-12-04T16:18:30.653Z,2.00
2022-12-04T16:20:58.887Z,2.10
2022-12-04T16:23:27.534Z,2.10
2022-12-04T16:25:56.039Z,2.00
2022-12-04T16:28:24.138Z,2.10
2022-12-04T16:30:54.227Z,2.00
2022-12-04T16:33:22.384Z,2.00
2022-12-04T16:35:51.076Z,2.10
2022-12-04T16:38:19.335Z,2.00
2022-12-04T16:40:48.534Z,2.00
2022-12-04T16:43:18.024Z,2.00
2022-12-04T16:45:48.363Z,2.00
2022-12-04T16:48:17.814Z,2.00
2022-12-04T16:50:46.740Z,2.00
2022-12-04T16:53:17.826Z,1.90
2022-12-04T16:55:47.216Z,2.00
2022-12-04T16:58:16.162Z,2.10
2022-12-04T17:00:46.995Z,2.00
2022-12-04T17:03:22.905Z,2.00
2022-12-04T17:05:51.069Z,2.00
2022-12-04T17:08:19.220Z,2.00
2022-12-04T17:10:47.386Z,2.00
2022-12-04T17:13:15.590Z,2.00
2022-12-04T17:15:43.755Z,2.10
2022-12-04T17:18:16.344Z,2.00
2022-12-04T17:20:48.856Z,1.90
2022-12-04T17:23:17.186Z,1.90
2022-12-04T17:25:45.297Z,1.90
2022-12-04T17:28:13.359Z,1.90
2022-12-04T17:30:45.151Z,1.90
2022-12-04T17:33:13.315Z,1.90
2022-12-04T17:35:43.844Z,1.90
2022-12-04T17:38:13.512Z,1.90
2022-12-04T17:40:41.544Z,1.90
2022-12-04T17:43:09.677Z,1.90
2022-12-04T17:45:41.117Z,1.90
2022-12-04T17:48:09.222Z,1.90
2022-12-04T17:50:37.275Z,1.90
2022-12-04T17:53:05.338Z,2.00
2022-12-04T17:55:35.307Z,2.00
2022-12-04T17:58:03.431Z,1.90
2022-12-04T18:00:31.619Z,1.90
2022-12-04T18:02:59.763Z,2.00
2022-12-04T18:05:29.495Z,2.00
2022-12-04T18:07:57.645Z,2.00
2022-12-04T18:10:25.759Z,2.00
2022-12-04T18:12:55.175Z,2.10
2022-12-04T18:15:23.303Z,2.10
2022-12-04T18:17:51.371Z,2.10
2022-12-04T18:20:19.503Z,2.10
2022-12-04T18:22:47.619Z,2.10
2022-12-04T18:25:15.679Z,2.10
2022-12-04T18:27:43.725Z,2.10
2022-12-04T18:30:13.729Z,2.20
2022-12-04T18:32:41.797Z,2.10
2022-12-04T18:35:10.468Z,2.10
2022-12-04T18:37:38.480Z,2.10
2022-12-04T18:40:08.270Z,2.10
2022-12-04T18:42:36.594Z,2.10
2022-12-04T18:45:07.875Z,2.10
2022-12-04T18:47:37.416Z,2.10
2022-12-04T18:50:06.000Z,2.10
2022-12-04T18:52:36.938Z,2.10
2022-12-04T18:55:05.426Z,2.10
2022-12-04T18:57:33.530Z,2.10
2022-12-04T19:00:01.582Z,2.10
2022-12-04T19:02:29.697Z,2.10
2022-12-04T19:04:59.123Z,2.10
2022-12-04T19:07:27.166Z,2.20
2022-12-04T19:10:13.384Z,2.10
2022-12-04T19:12:41.513Z,2.20
2022-12-04T19:15:10.210Z,2.10
2022-12-04T19:17:38.262Z,2.10
2022-12-04T19:20:09.316Z,2.20
2022-12-04T19:22:37.548Z,2.20
2022-12-04T19:25:07.435Z,2.10
2022-12-04T19:27:35.942Z,2.10
2022-12-04T19:30:04.051Z,2.20
2022-12-04T19:32:32.069Z,2.10
2022-12-04T19:35:00.142Z,2.20
2022-12-04T19:37:29.607Z,2.20
2022-12-04T19:39:58.204Z,2.20
2022-12-04T19:42:26.451Z,2.20
2022-12-04T19:44:54.499Z,2.20
2022-12-04T19:47:22.625Z,2.20
2022-12-04T19:49:50.754Z,2.20
2022-12-04T19:52:19.018Z,2.20
2022-12-04T19:54:48.423Z,2.20
2022-12-04T19:57:16.770Z,2.20
2022-12-04T19:59:46.798Z,2.20
2022-12-04T20:02:15.807Z,2.20
2022-12-04T20:04:44.263Z,2.20
2022-12-04T20:07:12.348Z,2.20
2022-12-04T20:09:40.727Z,2.20
2022-12-04T20:12:10.306Z,2.20
2022-12-04T20:14:38.334Z,2.30
2022-12-04T20:17:06.441Z,2.20
2022-12-04T20:19:34.626Z,2.30
2022-12-04T20:22:02.900Z,2.30
2022-12-04T20:24:30.931Z,2.20
2022-12-04T20:26:59.024Z,2.20
2022-12-04T20:29:28.452Z,2.20
2022-12-04T20:31:56.551Z,2.20
2022-12-04T20:34:24.625Z,2.20
2022-12-04T20:36:53.122Z,2.30
2022-12-04T20:39:21.923Z,2.20
2022-12-04T20:41:49.960Z,2.20
2022-12-04T20:44:20.553Z,2.20
2022-12-04T20:46:50.055Z,2.20
2022-12-04T20:49:21.959Z,2.20
2022-12-04T20:51:52.240Z,2.20
2022-12-04T20:54:22.848Z,2.30
2022-12-04T20:56:53.235Z,2.30
2022-12-04T20:59:24.057Z,2.30
2022-12-04T21:01:54.712Z,2.30
2022-12-04T21:04:23.515Z,2.40
2022-12-04T21:06:51.743Z,2.40
2022-12-04T21:09:21.410Z,2.40
2022-12-04T21:11:50.961Z,2.40
2022-12-04T21:14:38.550Z,2.40
2022-12-04T21:17:09.860Z,2.40
2022-12-04T21:19:38.590Z,2.40
2022-12-04T21:22:06.934Z,2.40
2022-12-04T21:24:38.636Z,2.40
2022-12-04T21:27:07.963Z,2.40
2022-12-04T21:29:36.742Z,2.50
2022-12-04T21:32:07.778Z,2.50
2022-12-04T21:34:36.134Z,2.50
2022-12-04T21:37:04.224Z,2.50
2022-12-04T21:39:32.706Z,2.50
2022-12-04T21:42:18.177Z,2.50
2022-12-04T21:44:46.788Z,2.50
2022-12-04T21:47:16.420Z,2.50
2022-12-04T21:49:44.617Z,2.50
2022-12-04T21:52:12.682Z,2.50
2022-12-04T21:54:40.707Z,2.50
2022-12-04T21:57:09.100Z,2.50
2022-12-04T21:59:37.191Z,2.50
2022-12-04T22:02:05.295Z,2.50
2022-12-04T22:04:34.775Z,2.50
2022-12-04T22:07:02.771Z,2.50
2022-12-04T22:09:30.940Z,2.60
2022-12-04T22:11:58.979Z,2.60
2022-12-04T22:14:27.011Z,2.60
2022-12-04T22:16:55.309Z,2.60
2022-12-04T22:19:23.614Z,2.60
2022-12-04T22:21:53.190Z,2.60
2022-12-04T22:24:21.215Z,2.60
2022-12-04T22:26:49.306Z,2.60
2022-12-04T22:29:48.736Z,2.60
2022-12-04T22:32:05.725Z,2.60
2022-12-04T22:34:34.326Z,2.60
2022-12-04T22:37:03.707Z,2.70
2022-12-04T22:39:33.567Z,2.70
2022-12-04T22:42:01.569Z,2.60
2022-12-04T22:44:29.610Z,2.70
2022-12-04T22:46:57.759Z,2.70
2022-12-04T22:49:25.891Z,2.70
2022-12-04T22:51:53.919Z,2.70
2022-12-04T22:54:23.468Z,2.70
2022-12-04T22:56:51.519Z,2.70
2022-12-04T22:59:19.570Z,2.70
2022-12-04T23:01:47.678Z,2.80
2022-12-04T23:04:15.671Z,2.70
2022-12-04T23:06:43.708Z,2.80
2022-12-04T23:09:14.604Z,2.80
2022-12-04T23:11:44.635Z,2.80
2022-12-04T23:14:15.094Z,2.80
2022-12-04T23:16:43.622Z,2.90
2022-12-04T23:19:13.709Z,2.80
2022-12-04T23:21:42.109Z,2.80
2022-12-04T23:24:10.375Z,2.90
2022-12-04T23:26:41.992Z,2.90
2022-12-04T23:29:45.035Z,2.90
2022-12-04T23:32:00.359Z,2.90
2022-12-04T23:34:28.454Z,2.90
2022-12-04T23:36:56.497Z,2.90
2022-12-04T23:39:24.622Z,2.90
2022-12-04T23:41:52.633Z,2.90
2022-12-04T23:44:22.061Z,2.90
2022-12-04T23:46:50.218Z,3.00
2022-12-04T23:49:18.378Z,3.00
2022-12-04T23:51:46.412Z,3.00
2022-12-04T23:54:16.343Z,3.00
2022-12-04T23:56:45.356Z,3.10
2022-12-04T23:59:13.409Z,3.10
